createdAt,value
2019-02-28T00:00:21.198Z,0
2019-02-28T00:01:22.021Z,0
2019-02-28T00:02:26.435Z,0
2019-02-28T00:03:26.079Z,0
2019-02-28T00:04:20.715Z,0
2019-02-28T00:05:20.996Z,0
2019-02-28T00:06:21.736Z,0
2019-02-28T00:07:24.778Z,0
2019-02-28T00:08:21.583Z,0
2019-02-28T00:09:21.390Z,0
2019-02-28T00:10:21.355Z,0
2019-02-28T00:11:21.151Z,0
2019-02-28T00:12:23.155Z,0
2019-02-28T00:13:26.453Z,0
2019-02-28T00:14:21.697Z,0
2019-02-28T00:15:21.715Z,0
2019-02-28T00:16:21.736Z,0
2019-02-28T00:17:21.764Z,0
2019-02-28T00:18:24.894Z,0
2019-02-28T00:19:25.776Z,0
2019-02-28T00:20:21.817Z,0
2019-02-28T00:21:21.565Z,0
2019-02-28T00:22:23.934Z,0
2019-02-28T00:23:26.246Z,0
2019-02-28T00:24:21.616Z,0
2019-02-28T00:25:21.634Z,0
2019-02-28T00:26:21.384Z,0
2019-02-28T00:27:25.780Z,0
2019-02-28T00:28:23.024Z,0
2019-02-28T00:29:21.815Z,0
2019-02-28T00:30:21.731Z,0
2019-02-28T00:31:24.500Z,0
2019-02-28T00:32:26.959Z,0
2019-02-28T00:33:22.320Z,0
2019-02-28T00:34:21.269Z,0
2019-02-28T00:35:23.406Z,0
2019-02-28T00:36:26.026Z,0
2019-02-28T00:37:24.615Z,0
2019-02-28T00:38:21.888Z,0
2019-02-28T00:39:22.153Z,0
2019-02-28T00:40:21.653Z,0
2019-02-28T00:41:22.192Z,0
2019-02-28T00:42:26.754Z,0
2019-02-28T00:43:25.101Z,0
2019-02-28T00:44:22.293Z,0
2019-02-28T00:45:22.008Z,0
2019-02-28T00:46:21.761Z,0
2019-02-28T00:47:23.549Z,0
2019-02-28T00:48:28.043Z,0
2019-02-28T00:49:24.431Z,0
2019-02-28T00:50:22.096Z,0
2019-02-28T00:51:22.107Z,0
2019-02-28T00:52:21.604Z,0
2019-02-28T00:53:22.407Z,0
2019-02-28T00:54:22.167Z,0
2019-02-28T00:55:23.521Z,0
2019-02-28T00:56:24.411Z,0
2019-02-28T00:57:23.595Z,0
2019-02-28T00:58:22.497Z,0
2019-02-28T00:59:22.272Z,0
2019-02-28T01:00:22.567Z,0
2019-02-28T01:01:22.311Z,0
2019-02-28T01:02:24.507Z,0
2019-02-28T01:03:26.267Z,0
2019-02-28T01:04:22.611Z,0
2019-02-28T01:05:21.856Z,0
2019-02-28T01:06:22.125Z,0
2019-02-28T01:07:26.052Z,0
2019-02-28T01:08:24.627Z,0
2019-02-28T01:09:22.968Z,0
2019-02-28T01:10:22.208Z,0
2019-02-28T01:11:23.087Z,0
2019-02-28T01:12:28.634Z,0
2019-02-28T01:13:27.060Z,0
2019-02-28T01:14:22.008Z,0
2019-02-28T01:15:22.291Z,0
2019-02-28T01:16:26.746Z,0
2019-02-28T01:17:23.996Z,0
2019-02-28T01:18:22.343Z,0
2019-02-28T01:19:22.382Z,0
2019-02-28T01:20:25.114Z,0
2019-02-28T01:21:25.961Z,0
2019-02-28T01:22:22.683Z,0
2019-02-28T01:23:22.440Z,0
2019-02-28T01:24:22.198Z,0
2019-02-28T01:25:22.477Z,0
2019-02-28T01:26:22.495Z,0
2019-02-28T01:27:27.605Z,0
2019-02-28T01:28:28.867Z,0
2019-02-28T01:29:22.823Z,0
2019-02-28T01:30:23.108Z,0
2019-02-28T01:31:23.109Z,0
2019-02-28T01:32:25.729Z,0
2019-02-28T01:33:29.099Z,0
2019-02-28T01:34:22.646Z,0
2019-02-28T01:35:22.395Z,0
2019-02-28T01:36:25.380Z,0
2019-02-28T01:37:25.732Z,0
2019-02-28T01:38:26.192Z,0
2019-02-28T01:39:23.306Z,0
2019-02-28T01:40:22.497Z,0
2019-02-28T01:41:23.298Z,0
2019-02-28T01:42:28.587Z,0
2019-02-28T01:43:28.294Z,0
2019-02-28T01:44:22.830Z,0
2019-02-28T01:45:22.866Z,0
2019-02-28T01:46:25.953Z,0
2019-02-28T01:47:24.858Z,0
2019-02-28T01:48:25.010Z,0
2019-02-28T01:49:25.833Z,0
2019-02-28T01:50:23.211Z,0
2019-02-28T01:51:23.508Z,0
2019-02-28T01:52:23.236Z,0
2019-02-28T01:53:27.943Z,0
2019-02-28T01:54:25.101Z,0
2019-02-28T01:55:23.575Z,0
2019-02-28T01:56:23.320Z,0
2019-02-28T01:57:23.075Z,0
2019-02-28T01:58:25.949Z,0
2019-02-28T01:59:26.522Z,0
2019-02-28T02:00:26.324Z,0
2019-02-28T02:01:23.668Z,0
2019-02-28T02:02:23.695Z,0
2019-02-28T02:03:24.069Z,0
2019-02-28T02:04:23.744Z,0
2019-02-28T02:05:26.289Z,0
2019-02-28T02:06:27.905Z,0
2019-02-28T02:07:23.255Z,0
2019-02-28T02:08:23.529Z,0
2019-02-28T02:09:23.819Z,0
2019-02-28T02:10:27.113Z,0
2019-02-28T02:11:26.657Z,0
2019-02-28T02:12:23.087Z,0
2019-02-28T02:13:23.624Z,0
2019-02-28T02:14:23.386Z,0
2019-02-28T02:15:26.394Z,0
2019-02-28T02:16:29.050Z,0
2019-02-28T02:17:23.967Z,0
2019-02-28T02:18:23.823Z,0
2019-02-28T02:19:27.812Z,0
2019-02-28T02:20:28.043Z,0
2019-02-28T02:21:23.520Z,0
2019-02-28T02:22:23.551Z,0
2019-02-28T02:23:26.882Z,0
2019-02-28T02:24:29.625Z,0
2019-02-28T02:25:23.956Z,0
2019-02-28T02:26:23.605Z,0
2019-02-28T02:27:28.079Z,0
2019-02-28T02:28:29.110Z,0
2019-02-28T02:29:24.202Z,0
2019-02-28T02:30:25.573Z,0
2019-02-28T02:31:29.812Z,0
2019-02-28T02:32:23.832Z,0
2019-02-28T02:33:24.518Z,0
2019-02-28T02:34:28.151Z,0
2019-02-28T02:35:24.345Z,0
2019-02-28T02:36:25.874Z,0
2019-02-28T02:37:26.325Z,0
2019-02-28T02:38:24.627Z,0
2019-02-28T02:39:26.595Z,0
2019-02-28T02:40:27.756Z,0
2019-02-28T02:41:24.147Z,0
2019-02-28T02:42:24.179Z,0
2019-02-28T02:43:27.707Z,0
2019-02-28T02:44:30.443Z,0
2019-02-28T02:45:24.257Z,0
2019-02-28T02:46:28.985Z,0
2019-02-28T02:47:31.045Z,0
2019-02-28T02:48:24.365Z,0
2019-02-28T02:49:28.903Z,0
2019-02-28T02:50:24.858Z,0
2019-02-28T02:51:24.345Z,0
2019-02-28T02:52:32.729Z,0
2019-02-28T02:53:24.361Z,0
2019-02-28T02:54:29.196Z,0
2019-02-28T02:55:29.946Z,0
2019-02-28T02:56:23.944Z,0
2019-02-28T02:57:25.010Z,0
2019-02-28T02:58:31.252Z,0
2019-02-28T02:59:24.492Z,0
2019-02-28T03:00:24.624Z,0
2019-02-28T03:01:27.932Z,0
2019-02-28T03:02:24.408Z,0
2019-02-28T03:03:24.574Z,0
2019-02-28T03:04:31.034Z,0
2019-02-28T03:05:24.880Z,0
2019-02-28T03:06:24.896Z,0
2019-02-28T03:07:32.318Z,0
2019-02-28T03:08:24.407Z,0
2019-02-28T03:09:24.198Z,0
2019-02-28T03:10:26.708Z,0
2019-02-28T03:11:29.430Z,0
2019-02-28T03:12:24.988Z,0
2019-02-28T03:13:24.736Z,0
2019-02-28T03:14:26.776Z,0
2019-02-28T03:15:32.412Z,0
2019-02-28T03:16:25.111Z,0
2019-02-28T03:17:25.343Z,0
2019-02-28T03:18:29.522Z,0
2019-02-28T03:19:24.603Z,0
2019-02-28T03:20:24.807Z,0
2019-02-28T03:21:25.501Z,0
2019-02-28T03:22:30.882Z,0
2019-02-28T03:23:24.679Z,0
2019-02-28T03:24:25.655Z,0
2019-02-28T03:25:30.299Z,0
2019-02-28T03:26:25.293Z,0
2019-02-28T03:27:28.892Z,0
2019-02-28T03:28:28.071Z,0
2019-02-28T03:29:25.330Z,0
2019-02-28T03:30:40.511Z,0
2019-02-28T03:31:25.619Z,0
2019-02-28T03:32:25.130Z,0
2019-02-28T03:33:36.761Z,0
2019-02-28T03:34:24.994Z,0
2019-02-28T03:35:25.243Z,0
2019-02-28T03:36:26.635Z,0
2019-02-28T03:37:24.915Z,0
2019-02-28T03:38:25.764Z,0
2019-02-28T03:39:31.426Z,0
2019-02-28T03:40:25.572Z,0
2019-02-28T03:41:26.944Z,0
2019-02-28T03:42:31.231Z,0
2019-02-28T03:43:25.041Z,0
2019-02-28T03:44:30.581Z,0
2019-02-28T03:45:25.180Z,0
2019-02-28T03:46:25.075Z,0
2019-02-28T03:47:31.987Z,0
2019-02-28T03:48:24.890Z,0
2019-02-28T03:49:25.393Z,0
2019-02-28T03:50:28.912Z,0
2019-02-28T03:51:28.250Z,0
2019-02-28T03:52:25.455Z,0
2019-02-28T03:53:30.155Z,0
2019-02-28T03:54:28.742Z,0
2019-02-28T03:55:25.530Z,0
2019-02-28T03:56:25.539Z,0
2019-02-28T03:57:32.959Z,0
2019-02-28T03:58:26.152Z,0
2019-02-28T03:59:29.379Z,0
2019-02-28T04:00:32.255Z,0
2019-02-28T04:01:25.630Z,0
2019-02-28T04:02:30.056Z,0
2019-02-28T04:03:25.941Z,0
2019-02-28T04:04:25.411Z,0
2019-02-28T04:05:34.180Z,0
2019-02-28T04:06:25.734Z,0
2019-02-28T04:07:26.565Z,0
2019-02-28T04:08:31.958Z,0
2019-02-28T04:09:26.032Z,0
2019-02-28T04:10:31.425Z,0
2019-02-28T04:11:33.432Z,0
2019-02-28T04:12:26.084Z,0
2019-02-28T04:13:28.870Z,0
2019-02-28T04:14:28.244Z,0
2019-02-28T04:15:25.351Z,0
2019-02-28T04:16:25.625Z,0
2019-02-28T04:17:32.801Z,0
2019-02-28T04:18:25.718Z,0
2019-02-28T04:19:30.908Z,0
2019-02-28T04:20:26.495Z,0
2019-02-28T04:21:25.769Z,0
2019-02-28T04:22:31.607Z,0
2019-02-28T04:23:25.486Z,0
2019-02-28T04:24:25.889Z,0
2019-02-28T04:25:31.883Z,0
2019-02-28T04:26:29.688Z,0
2019-02-28T04:27:26.359Z,0
2019-02-28T04:28:27.798Z,0
2019-02-28T04:29:32.332Z,0
2019-02-28T04:30:26.165Z,0
2019-02-28T04:31:29.549Z,0
2019-02-28T04:32:31.034Z,0
2019-02-28T04:33:26.233Z,0
2019-02-28T04:34:26.480Z,0
2019-02-28T04:35:31.166Z,0
2019-02-28T04:36:26.272Z,0
2019-02-28T04:37:26.025Z,0
2019-02-28T04:38:29.253Z,0
2019-02-28T04:39:29.620Z,0
2019-02-28T04:40:30.955Z,0
2019-02-28T04:41:26.604Z,0
2019-02-28T04:42:26.349Z,0
2019-02-28T04:43:26.375Z,0
2019-02-28T04:44:28.353Z,0
2019-02-28T04:45:30.433Z,0
2019-02-28T04:46:28.254Z,0
2019-02-28T04:47:26.445Z,0
2019-02-28T04:48:26.724Z,0
2019-02-28T04:49:30.782Z,0
2019-02-28T04:50:30.928Z,0
2019-02-28T04:51:26.512Z,0
2019-02-28T04:52:26.798Z,0
2019-02-28T04:53:28.334Z,0
2019-02-28T04:54:30.091Z,0
2019-02-28T04:55:26.593Z,0
2019-02-28T04:56:26.640Z,0
2019-02-28T04:57:29.606Z,0
2019-02-28T04:58:30.458Z,0
2019-02-28T04:59:27.188Z,0
2019-02-28T05:00:26.939Z,0
2019-02-28T05:01:26.451Z,0
2019-02-28T05:02:29.743Z,0
2019-02-28T05:03:32.612Z,0
2019-02-28T05:04:26.484Z,0
2019-02-28T05:05:26.502Z,0
2019-02-28T05:06:29.728Z,0
2019-02-28T05:07:31.916Z,0
2019-02-28T05:08:27.084Z,0
2019-02-28T05:09:26.583Z,0
2019-02-28T05:10:30.438Z,0
2019-02-28T05:11:33.669Z,0
2019-02-28T05:12:27.437Z,0
2019-02-28T05:13:26.915Z,0
2019-02-28T05:14:32.684Z,0
2019-02-28T05:15:26.951Z,0
2019-02-28T05:16:26.983Z,0
2019-02-28T05:17:30.941Z,0
2019-02-28T05:18:30.079Z,0
2019-02-28T05:19:27.024Z,0
2019-02-28T05:20:26.517Z,0
2019-02-28T05:21:29.025Z,0
2019-02-28T05:22:29.894Z,0
2019-02-28T05:23:27.097Z,0
2019-02-28T05:24:27.377Z,0
2019-02-28T05:25:27.494Z,0
2019-02-28T05:26:30.323Z,0
2019-02-28T05:27:34.780Z,0
2019-02-28T05:28:26.662Z,0
2019-02-28T05:29:26.679Z,0
2019-02-28T05:30:28.904Z,0
2019-02-28T05:31:31.490Z,0
2019-02-28T05:32:27.521Z,0
2019-02-28T05:33:27.022Z,0
2019-02-28T05:34:27.607Z,0
2019-02-28T05:35:32.655Z,0
2019-02-28T05:36:27.608Z,0
2019-02-28T05:37:27.355Z,0
2019-02-28T05:38:30.810Z,0
2019-02-28T05:39:28.151Z,0
2019-02-28T05:40:27.666Z,0
2019-02-28T05:41:27.441Z,0
2019-02-28T05:42:32.128Z,0
2019-02-28T05:43:29.142Z,0
2019-02-28T05:44:28.432Z,0
2019-02-28T05:45:27.754Z,0
2019-02-28T05:46:32.270Z,0
2019-02-28T05:47:29.333Z,0
2019-02-28T05:48:27.548Z,0
2019-02-28T05:49:27.318Z,0
2019-02-28T05:50:27.849Z,0
2019-02-28T05:51:29.851Z,0
2019-02-28T05:52:30.407Z,0
2019-02-28T05:53:27.908Z,0
2019-02-28T05:54:27.676Z,0
2019-02-28T05:55:35.033Z,0
2019-02-28T05:56:32.735Z,0
2019-02-28T05:57:27.978Z,0
2019-02-28T05:58:30.260Z,0
2019-02-28T05:59:33.024Z,0
2019-02-28T06:00:27.516Z,0
2019-02-28T06:01:27.256Z,0
2019-02-28T06:02:32.688Z,0
2019-02-28T06:03:29.479Z,0
2019-02-28T06:04:27.623Z,0
2019-02-28T06:05:28.120Z,0
2019-02-28T06:06:29.776Z,0
2019-02-28T06:07:31.924Z,0
2019-02-28T06:08:28.209Z,0
2019-02-28T06:09:27.395Z,0
2019-02-28T06:10:32.770Z,0
2019-02-28T06:11:27.969Z,0
2019-02-28T06:12:27.719Z,0
2019-02-28T06:13:27.879Z,0
2019-02-28T06:14:33.217Z,0
2019-02-28T06:15:28.965Z,0
2019-02-28T06:16:27.532Z,0
2019-02-28T06:17:31.051Z,0
2019-02-28T06:18:35.745Z,0
2019-02-28T06:19:29.560Z,0
2019-02-28T06:20:28.134Z,0
2019-02-28T06:21:30.741Z,0
2019-02-28T06:22:30.526Z,0
2019-02-28T06:23:28.192Z,0
2019-02-28T06:24:27.946Z,0
2019-02-28T06:25:34.461Z,0
2019-02-28T06:26:28.233Z,0
2019-02-28T06:27:28.922Z,0
2019-02-28T06:28:33.140Z,5
2019-02-28T06:29:28.040Z,5
2019-02-28T06:30:30.080Z,5
2019-02-28T06:31:28.161Z,5
2019-02-28T06:32:34.467Z,5
2019-02-28T06:33:35.676Z,5
2019-02-28T06:34:28.656Z,5
2019-02-28T06:35:29.949Z,5
2019-02-28T06:36:33.576Z,5
2019-02-28T06:37:31.211Z,5
2019-02-28T06:38:28.809Z,5
2019-02-28T06:39:32.175Z,5
2019-02-28T06:40:32.551Z,5
2019-02-28T06:41:27.989Z,5
2019-02-28T06:42:28.805Z,5
2019-02-28T06:43:28.799Z,5
2019-02-28T06:44:31.378Z,5
2019-02-28T06:45:28.047Z,5
2019-02-28T06:46:28.335Z,5
2019-02-28T06:47:28.387Z,10
2019-02-28T06:48:34.015Z,10
2019-02-28T06:49:28.911Z,10
2019-02-28T06:50:28.402Z,10
2019-02-28T06:51:28.417Z,10
2019-02-28T06:52:32.315Z,10
2019-02-28T06:53:30.730Z,10
2019-02-28T06:54:28.485Z,10
2019-02-28T06:55:28.767Z,10
2019-02-28T06:56:33.313Z,10
2019-02-28T06:57:33.043Z,10
2019-02-28T06:58:30.446Z,10
2019-02-28T06:59:29.122Z,10
2019-02-28T07:00:28.845Z,10
2019-02-28T07:01:34.187Z,10
2019-02-28T07:02:33.553Z,10
2019-02-28T07:03:28.918Z,10
2019-02-28T07:04:28.927Z,15
2019-02-28T07:05:33.957Z,15
2019-02-28T07:06:29.488Z,15
2019-02-28T07:07:28.973Z,15
2019-02-28T07:08:35.500Z,15
2019-02-28T07:09:30.417Z,15
2019-02-28T07:10:28.878Z,15
2019-02-28T07:11:29.930Z,15
2019-02-28T07:12:35.596Z,15
2019-02-28T07:13:29.607Z,15
2019-02-28T07:14:29.406Z,15
2019-02-28T07:15:32.941Z,15
2019-02-28T07:16:30.632Z,15
2019-02-28T07:17:28.917Z,15
2019-02-28T07:18:29.220Z,15
2019-02-28T07:19:32.332Z,15
2019-02-28T07:20:29.221Z,10
2019-02-28T07:21:28.966Z,10
2019-02-28T07:22:30.443Z,10
2019-02-28T07:23:36.551Z,10
2019-02-28T07:24:29.028Z,10
2019-02-28T07:25:29.042Z,10
2019-02-28T07:26:29.329Z,15
2019-02-28T07:27:34.442Z,15
2019-02-28T07:28:29.888Z,15
2019-02-28T07:29:29.369Z,15
2019-02-28T07:30:29.682Z,15
2019-02-28T07:31:33.218Z,15
2019-02-28T07:32:36.566Z,15
2019-02-28T07:33:29.726Z,15
2019-02-28T07:34:33.334Z,15
2019-02-28T07:35:36.862Z,15
2019-02-28T07:36:29.800Z,15
2019-02-28T07:37:29.535Z,15
2019-02-28T07:38:35.296Z,15
2019-02-28T07:39:29.333Z,15
2019-02-28T07:40:29.324Z,15
2019-02-28T07:41:35.413Z,15
2019-02-28T07:42:29.351Z,15
2019-02-28T07:43:29.370Z,15
2019-02-28T07:44:31.436Z,15
2019-02-28T07:45:33.073Z,15
2019-02-28T07:46:31.502Z,15
2019-02-28T07:47:30.142Z,15
2019-02-28T07:48:36.851Z,20
2019-02-28T07:49:38.483Z,20
2019-02-28T07:50:29.495Z,20
2019-02-28T07:51:33.291Z,20
2019-02-28T07:52:35.010Z,20
2019-02-28T07:53:29.551Z,20
2019-02-28T07:54:31.258Z,25
2019-02-28T07:55:33.193Z,25
2019-02-28T07:56:30.440Z,25
2019-02-28T07:57:31.140Z,25
2019-02-28T07:58:34.633Z,25
2019-02-28T07:59:30.274Z,25
2019-02-28T08:00:29.975Z,25
2019-02-28T08:01:34.043Z,25
2019-02-28T08:02:30.509Z,25
2019-02-28T08:03:30.272Z,25
2019-02-28T08:04:30.025Z,25
2019-02-28T08:05:34.531Z,30
2019-02-28T08:06:30.050Z,30
2019-02-28T08:07:30.615Z,30
2019-02-28T08:08:35.372Z,30
2019-02-28T08:09:29.847Z,30
2019-02-28T08:10:30.405Z,30
2019-02-28T08:11:30.418Z,30
2019-02-28T08:12:33.744Z,30
2019-02-28T08:13:30.186Z,25
2019-02-28T08:14:30.216Z,25
2019-02-28T08:15:31.854Z,30
2019-02-28T08:16:33.901Z,30
2019-02-28T08:17:30.516Z,35
2019-02-28T08:18:31.639Z,35
2019-02-28T08:19:34.916Z,35
2019-02-28T08:20:33.808Z,35
2019-02-28T08:21:30.588Z,35
2019-02-28T08:22:34.079Z,35
2019-02-28T08:23:34.642Z,35
2019-02-28T08:24:31.537Z,35
2019-02-28T08:25:30.679Z,35
2019-02-28T08:26:30.418Z,35
2019-02-28T08:27:32.522Z,35
2019-02-28T08:28:35.475Z,35
2019-02-28T08:29:30.738Z,35
2019-02-28T08:30:30.519Z,35
2019-02-28T08:31:36.426Z,35
2019-02-28T08:32:30.808Z,35
2019-02-28T08:33:30.560Z,35
2019-02-28T08:34:33.876Z,35
2019-02-28T08:35:36.698Z,35
2019-02-28T08:36:30.350Z,35
2019-02-28T08:37:31.390Z,35
2019-02-28T08:38:34.198Z,40
2019-02-28T08:39:30.716Z,40
2019-02-28T08:40:33.693Z,40
2019-02-28T08:41:34.851Z,40
2019-02-28T08:42:30.451Z,40
2019-02-28T08:43:36.036Z,40
2019-02-28T08:44:33.083Z,40
2019-02-28T08:45:35.712Z,40
2019-02-28T08:46:31.393Z,40
2019-02-28T08:47:31.095Z,40
2019-02-28T08:48:37.113Z,40
2019-02-28T08:49:30.851Z,40
2019-02-28T08:50:33.359Z,40
2019-02-28T08:51:37.694Z,40
2019-02-28T08:52:30.915Z,40
2019-02-28T08:53:31.183Z,40
2019-02-28T08:54:35.349Z,40
2019-02-28T08:55:43.588Z,40
2019-02-28T08:56:32.191Z,40
2019-02-28T08:57:34.502Z,40
2019-02-28T08:58:31.289Z,40
2019-02-28T08:59:32.040Z,40
2019-02-28T09:00:37.594Z,40
2019-02-28T09:01:31.073Z,40
2019-02-28T09:02:32.836Z,40
2019-02-28T09:03:36.208Z,40
2019-02-28T09:04:31.131Z,40
2019-02-28T09:05:36.858Z,40
2019-02-28T09:06:31.971Z,40
2019-02-28T09:07:31.206Z,40
2019-02-28T09:08:34.555Z,45
2019-02-28T09:09:31.627Z,45
2019-02-28T09:10:31.243Z,45
2019-02-28T09:11:31.268Z,45
2019-02-28T09:12:35.226Z,45
2019-02-28T09:13:31.926Z,45
2019-02-28T09:14:31.836Z,45
2019-02-28T09:15:37.234Z,40
2019-02-28T09:16:31.876Z,40
2019-02-28T09:17:31.386Z,40
2019-02-28T09:18:31.406Z,40
2019-02-28T09:19:32.490Z,40
2019-02-28T09:20:31.180Z,35
2019-02-28T09:21:31.182Z,35
2019-02-28T09:22:36.573Z,40
2019-02-28T09:23:34.369Z,45
2019-02-28T09:24:33.092Z,45
2019-02-28T09:25:33.799Z,45
2019-02-28T09:26:35.316Z,45
2019-02-28T09:27:31.568Z,45
2019-02-28T09:28:31.314Z,45
2019-02-28T09:29:31.591Z,40
2019-02-28T09:30:36.166Z,45
2019-02-28T09:31:31.628Z,40
2019-02-28T09:32:31.385Z,40
2019-02-28T09:33:33.055Z,45
2019-02-28T09:34:35.029Z,40
2019-02-28T09:35:31.179Z,40
2019-02-28T09:36:32.247Z,40
2019-02-28T09:37:36.422Z,40
2019-02-28T09:38:31.502Z,40
2019-02-28T09:39:31.264Z,45
2019-02-28T09:40:38.589Z,45
2019-02-28T09:41:31.558Z,45
2019-02-28T09:42:31.568Z,45
2019-02-28T09:43:33.450Z,40
2019-02-28T09:44:36.196Z,45
2019-02-28T09:45:31.918Z,45
2019-02-28T09:46:32.201Z,45
2019-02-28T09:47:35.464Z,45
2019-02-28T09:48:33.905Z,50
2019-02-28T09:49:31.736Z,50
2019-02-28T09:50:33.283Z,50
2019-02-28T09:51:36.399Z,45
2019-02-28T09:52:31.496Z,50
2019-02-28T09:53:32.050Z,50
2019-02-28T09:54:33.855Z,50
2019-02-28T09:55:36.839Z,55
2019-02-28T09:56:31.879Z,55
2019-02-28T09:57:32.731Z,55
2019-02-28T09:58:35.337Z,55
2019-02-28T09:59:37.263Z,60
2019-02-28T10:00:34.108Z,55
2019-02-28T10:01:33.513Z,55
2019-02-28T10:02:32.472Z,55
2019-02-28T10:03:32.231Z,55
2019-02-28T10:04:36.764Z,55
2019-02-28T10:05:32.018Z,55
2019-02-28T10:06:33.216Z,55
2019-02-28T10:07:35.842Z,60
2019-02-28T10:08:33.444Z,65
2019-02-28T10:09:32.346Z,70
2019-02-28T10:10:32.139Z,70
2019-02-28T10:11:40.451Z,70
2019-02-28T10:12:32.407Z,65
2019-02-28T10:13:33.263Z,65
2019-02-28T10:14:39.481Z,65
2019-02-28T10:15:32.471Z,65
2019-02-28T10:16:32.770Z,65
2019-02-28T10:17:37.666Z,65
2019-02-28T10:18:35.429Z,65
2019-02-28T10:19:32.778Z,65
2019-02-28T10:20:37.366Z,65
2019-02-28T10:21:39.609Z,65
2019-02-28T10:22:32.589Z,65
2019-02-28T10:23:32.611Z,65
2019-02-28T10:24:35.874Z,65
2019-02-28T10:25:32.654Z,65
2019-02-28T10:26:32.407Z,65
2019-02-28T10:27:36.404Z,65
2019-02-28T10:28:32.449Z,65
2019-02-28T10:29:32.725Z,60
2019-02-28T10:30:40.285Z,60
2019-02-28T10:31:45.701Z,55
2019-02-28T10:32:32.520Z,55
2019-02-28T10:33:32.536Z,55
2019-02-28T10:34:35.512Z,55
2019-02-28T10:35:36.673Z,55
2019-02-28T10:36:33.129Z,55
2019-02-28T10:37:32.614Z,60
2019-02-28T10:38:37.328Z,60
2019-02-28T10:39:32.911Z,65
2019-02-28T10:40:32.676Z,65
2019-02-28T10:41:38.250Z,70
2019-02-28T10:42:33.234Z,75
2019-02-28T10:43:33.252Z,75
2019-02-28T10:44:37.083Z,80
2019-02-28T10:45:32.765Z,75
2019-02-28T10:46:33.047Z,70
2019-02-28T10:47:37.397Z,70
2019-02-28T10:48:35.207Z,70
2019-02-28T10:49:34.593Z,70
2019-02-28T10:50:38.743Z,70
2019-02-28T10:51:32.627Z,70
2019-02-28T10:52:37.711Z,75
2019-02-28T10:53:36.213Z,70
2019-02-28T10:54:32.936Z,70
2019-02-28T10:55:33.218Z,70
2019-02-28T10:56:36.558Z,75
2019-02-28T10:57:33.252Z,75
2019-02-28T10:58:33.024Z,75
2019-02-28T10:59:34.003Z,75
2019-02-28T11:00:38.507Z,75
2019-02-28T11:01:33.075Z,75
2019-02-28T11:02:33.088Z,75
2019-02-28T11:03:38.453Z,75
2019-02-28T11:04:34.838Z,80
2019-02-28T11:05:34.603Z,80
2019-02-28T11:06:37.101Z,80
2019-02-28T11:07:34.179Z,80
2019-02-28T11:08:33.001Z,80
2019-02-28T11:09:34.498Z,80
2019-02-28T11:10:37.364Z,80
2019-02-28T11:11:33.533Z,80
2019-02-28T11:12:33.549Z,80
2019-02-28T11:13:38.619Z,80
2019-02-28T11:14:35.434Z,80
2019-02-28T11:15:33.608Z,80
2019-02-28T11:16:33.501Z,80
2019-02-28T11:17:37.997Z,75
2019-02-28T11:18:33.936Z,75
2019-02-28T11:19:33.962Z,75
2019-02-28T11:20:37.880Z,75
2019-02-28T11:21:37.323Z,75
2019-02-28T11:22:36.430Z,75
2019-02-28T11:23:33.757Z,75
2019-02-28T11:24:36.251Z,75
2019-02-28T11:25:36.859Z,80
2019-02-28T11:26:33.555Z,80
2019-02-28T11:27:33.837Z,75
2019-02-28T11:28:37.943Z,75
2019-02-28T11:29:35.072Z,75
2019-02-28T11:30:36.014Z,75
2019-02-28T11:31:35.005Z,70
2019-02-28T11:32:38.406Z,70
2019-02-28T11:33:36.421Z,70
2019-02-28T11:34:34.272Z,70
2019-02-28T11:35:34.034Z,70
2019-02-28T11:36:38.385Z,70
2019-02-28T11:37:33.790Z,70
2019-02-28T11:38:34.577Z,70
2019-02-28T11:39:41.003Z,75
2019-02-28T11:40:34.359Z,75
2019-02-28T11:41:34.373Z,75
2019-02-28T11:42:37.755Z,75
2019-02-28T11:43:42.202Z,75
2019-02-28T11:44:33.905Z,75
2019-02-28T11:45:35.047Z,80
2019-02-28T11:46:38.280Z,80
2019-02-28T11:47:34.236Z,80
2019-02-28T11:48:34.261Z,80
2019-02-28T11:49:37.650Z,80
2019-02-28T11:50:34.815Z,75
2019-02-28T11:51:34.976Z,75
2019-02-28T11:52:36.556Z,75
2019-02-28T11:53:38.923Z,75
2019-02-28T11:54:34.097Z,75
2019-02-28T11:55:36.600Z,75
2019-02-28T11:56:37.795Z,80
2019-02-28T11:57:34.194Z,80
2019-02-28T11:58:35.381Z,80
2019-02-28T11:59:34.851Z,80
2019-02-28T12:00:40.091Z,80
2019-02-28T12:01:34.504Z,80
2019-02-28T12:02:36.114Z,75
2019-02-28T12:03:39.378Z,75
2019-02-28T12:04:34.088Z,75
2019-02-28T12:05:34.344Z,75
2019-02-28T12:06:35.501Z,75
2019-02-28T12:07:39.052Z,75
2019-02-28T12:08:35.174Z,75
2019-02-28T12:09:34.144Z,75
2019-02-28T12:10:36.229Z,75
2019-02-28T12:11:38.409Z,70
2019-02-28T12:12:34.457Z,70
2019-02-28T12:13:34.816Z,70
2019-02-28T12:14:37.913Z,70
2019-02-28T12:15:34.257Z,70
2019-02-28T12:16:35.293Z,70
2019-02-28T12:17:38.423Z,70
2019-02-28T12:18:39.452Z,75
2019-02-28T12:19:35.503Z,75
2019-02-28T12:20:35.857Z,80
2019-02-28T12:21:37.575Z,80
2019-02-28T12:22:35.179Z,85
2019-02-28T12:23:34.670Z,85
2019-02-28T12:24:36.734Z,85
2019-02-28T12:25:34.731Z,85
2019-02-28T12:26:35.000Z,85
2019-02-28T12:27:37.035Z,90
2019-02-28T12:28:38.242Z,90
2019-02-28T12:29:35.591Z,95
2019-02-28T12:30:35.269Z,90
2019-02-28T12:31:39.889Z,95
2019-02-28T12:32:34.856Z,95
2019-02-28T12:33:34.882Z,95
2019-02-28T12:34:38.569Z,100
2019-02-28T12:35:43.047Z,105
2019-02-28T12:36:36.345Z,105
2019-02-28T12:37:36.894Z,100
2019-02-28T12:38:38.042Z,100
2019-02-28T12:39:39.139Z,100
2019-02-28T12:40:35.008Z,100
2019-02-28T12:41:35.990Z,95
2019-02-28T12:42:37.142Z,90
2019-02-28T12:43:35.330Z,90
2019-02-28T12:44:35.086Z,90
2019-02-28T12:45:35.650Z,85
2019-02-28T12:46:38.686Z,85
2019-02-28T12:47:38.573Z,90
2019-02-28T12:48:35.923Z,90
2019-02-28T12:49:36.601Z,80
2019-02-28T12:50:38.695Z,70
2019-02-28T12:51:36.426Z,65
2019-02-28T12:52:36.042Z,60
2019-02-28T12:53:37.181Z,60
2019-02-28T12:54:39.768Z,60
2019-02-28T12:55:38.775Z,55
2019-02-28T12:56:35.599Z,55
2019-02-28T12:57:35.106Z,55
2019-02-28T12:58:46.164Z,60
2019-02-28T12:59:37.009Z,60
2019-02-28T13:00:36.012Z,60
2019-02-28T13:01:38.249Z,60
2019-02-28T13:02:35.197Z,65
2019-02-28T13:03:36.049Z,70
2019-02-28T13:04:39.052Z,70
2019-02-28T13:05:36.043Z,75
2019-02-28T13:06:35.806Z,80
2019-02-28T13:07:39.461Z,80
2019-02-28T13:08:38.589Z,80
2019-02-28T13:09:37.101Z,80
2019-02-28T13:10:37.932Z,80
2019-02-28T13:11:38.500Z,80
2019-02-28T13:12:36.469Z,75
2019-02-28T13:13:38.403Z,70
2019-02-28T13:14:42.406Z,70
2019-02-28T13:15:35.728Z,65
2019-02-28T13:16:35.467Z,60
2019-02-28T13:17:40.196Z,55
2019-02-28T13:18:36.315Z,55
2019-02-28T13:19:36.620Z,55
2019-02-28T13:20:43.855Z,55
2019-02-28T13:21:38.216Z,55
2019-02-28T13:22:35.594Z,50
2019-02-28T13:23:40.044Z,50
2019-02-28T13:24:36.496Z,50
2019-02-28T13:25:36.202Z,50
2019-02-28T13:26:40.268Z,50
2019-02-28T13:27:36.806Z,55
2019-02-28T13:28:35.725Z,55
2019-02-28T13:29:39.684Z,55
2019-02-28T13:30:36.054Z,55
2019-02-28T13:31:37.863Z,60
2019-02-28T13:32:40.719Z,60
2019-02-28T13:33:36.651Z,65
2019-02-28T13:34:38.989Z,65
2019-02-28T13:35:36.404Z,70
2019-02-28T13:36:36.434Z,70
2019-02-28T13:37:44.745Z,70
2019-02-28T13:38:36.958Z,70
2019-02-28T13:39:40.433Z,70
2019-02-28T13:40:36.738Z,70
2019-02-28T13:41:37.181Z,70
2019-02-28T13:42:42.342Z,70
2019-02-28T13:43:39.057Z,75
2019-02-28T13:44:42.094Z,75
2019-02-28T13:45:36.884Z,75
2019-02-28T13:46:41.527Z,75
2019-02-28T13:47:36.352Z,75
2019-02-28T13:48:42.604Z,75
2019-02-28T13:49:38.667Z,75
2019-02-28T13:50:38.777Z,80
2019-02-28T13:51:44.715Z,80
2019-02-28T13:52:36.980Z,80
2019-02-28T13:53:40.729Z,80
2019-02-28T13:54:38.047Z,80
2019-02-28T13:55:36.796Z,80
2019-02-28T13:56:41.140Z,80
2019-02-28T13:57:36.857Z,80
2019-02-28T13:58:36.581Z,80
2019-02-28T13:59:40.980Z,85
2019-02-28T14:00:43.571Z,85
2019-02-28T14:01:36.939Z,90
2019-02-28T14:02:40.718Z,90
2019-02-28T14:03:36.960Z,90
2019-02-28T14:04:37.267Z,95
2019-02-28T14:05:43.994Z,90
2019-02-28T14:06:37.057Z,90
2019-02-28T14:07:40.543Z,90
2019-02-28T14:08:37.056Z,90
2019-02-28T14:09:37.085Z,95
2019-02-28T14:10:42.029Z,100
2019-02-28T14:11:41.722Z,100
2019-02-28T14:12:38.646Z,105
2019-02-28T14:13:42.336Z,100
2019-02-28T14:14:38.868Z,105
2019-02-28T14:15:36.925Z,100
2019-02-28T14:16:36.961Z,100
2019-02-28T14:17:41.685Z,100
2019-02-28T14:18:36.981Z,95
2019-02-28T14:19:37.002Z,90
2019-02-28T14:20:37.637Z,100
2019-02-28T14:21:41.605Z,90
2019-02-28T14:22:37.334Z,80
2019-02-28T14:23:37.082Z,85
2019-02-28T14:24:40.714Z,85
2019-02-28T14:25:41.477Z,90
2019-02-28T14:26:51.716Z,95
2019-02-28T14:27:37.693Z,90
2019-02-28T14:28:40.863Z,75
2019-02-28T14:29:37.732Z,85